Aviation Digital Data Service (ADDS)

Output produced by METARs form (1406 UTC 01 September 2015)
found at http://aviationweather.gov/adds/metars/
 
KGSO 011136Z 0112/0212 00000KT P6SM SKC 
     TEMPO 0112/0113 4SM BR SCT003 
     FM011330 28004KT P6SM SCT020 
     FM011800 VRB04KT P6SM FEW035